createdAt,value
2018-08-31T00:01:59.003Z,90.20
2018-08-31T00:04:40.037Z,91.20
2018-08-31T00:06:53.669Z,91.60
2018-08-31T00:09:07.382Z,92.00
2018-08-31T00:13:17.696Z,92.40
2018-08-31T00:15:19.741Z,92.40
2018-08-31T00:17:21.930Z,92.70
2018-08-31T00:19:24.125Z,92.50
2018-08-31T00:21:26.218Z,92.60
2018-08-31T00:23:39.979Z,92.80
2018-08-31T00:26:21.573Z,92.90
2018-08-31T00:28:34.051Z,93.30
2018-08-31T00:30:47.890Z,92.10
2018-08-31T00:35:10.049Z,91.90
2018-08-31T00:41:30.338Z,91.40
2018-08-31T00:43:42.841Z,91.60
2018-08-31T00:45:44.898Z,92.40
2018-08-31T00:47:46.965Z,92.10
2018-08-31T00:49:49.017Z,92.60
2018-08-31T00:51:51.057Z,92.40
2018-08-31T00:53:53.370Z,92.70
2018-08-31T00:55:55.413Z,92.90
2018-08-31T00:57:57.457Z,93.30
2018-08-31T00:59:59.765Z,93.20
2018-08-31T01:02:01.995Z,93.00
2018-08-31T01:04:04.221Z,93.40
2018-08-31T01:06:06.317Z,93.30
2018-08-31T01:08:08.408Z,92.60
2018-08-31T01:10:10.500Z,92.90
2018-08-31T01:12:12.546Z,92.90
2018-08-31T01:14:14.682Z,93.10
2018-08-31T01:16:16.749Z,93.40
2018-08-31T01:18:18.850Z,93.60
2018-08-31T01:20:20.927Z,93.30
2018-08-31T01:22:22.985Z,93.60
2018-08-31T01:24:25.028Z,93.60
2018-08-31T01:26:27.096Z,93.40
2018-08-31T01:28:29.182Z,93.60
2018-08-31T01:30:31.226Z,93.20
2018-08-31T01:32:33.288Z,93.50
2018-08-31T01:34:35.332Z,93.40
2018-08-31T01:36:37.415Z,93.20
2018-08-31T01:38:39.471Z,92.90
2018-08-31T01:40:41.597Z,93.20
2018-08-31T01:42:43.634Z,93.30
2018-08-31T01:44:45.724Z,93.50
2018-08-31T01:46:47.785Z,93.50
2018-08-31T01:48:49.838Z,93.90
2018-08-31T01:50:57.550Z,93.80
2018-08-31T01:52:59.690Z,94.20
2018-08-31T01:55:01.757Z,94.30
2018-08-31T01:57:04.007Z,94.40
2018-08-31T01:59:06.053Z,94.80
2018-08-31T02:01:08.153Z,94.20
2018-08-31T02:03:10.201Z,94.20
2018-08-31T02:05:12.264Z,93.70
2018-08-31T02:07:15.023Z,93.90
2018-08-31T02:09:17.701Z,93.90
2018-08-31T02:11:19.763Z,93.80
2018-08-31T02:13:21.828Z,94.20
2018-08-31T02:15:23.881Z,94.00
2018-08-31T02:17:26.129Z,94.30
2018-08-31T02:19:28.164Z,94.20
2018-08-31T02:21:30.225Z,94.40
2018-08-31T02:23:32.305Z,94.50
2018-08-31T02:25:34.369Z,94.30
2018-08-31T02:27:36.418Z,94.20
2018-08-31T02:29:38.453Z,94.20
2018-08-31T02:31:40.505Z,94.50
2018-08-31T02:33:42.614Z,94.50
2018-08-31T02:35:44.660Z,94.80
2018-08-31T02:37:46.833Z,94.70
2018-08-31T02:39:48.956Z,94.90
2018-08-31T02:41:50.989Z,94.80
2018-08-31T02:43:53.266Z,94.80
2018-08-31T02:45:55.314Z,94.90
2018-08-31T02:47:57.377Z,95.00
2018-08-31T02:49:59.413Z,95.00
2018-08-31T02:52:01.485Z,94.90
2018-08-31T02:54:03.577Z,94.70
2018-08-31T02:56:05.633Z,94.50
2018-08-31T02:58:07.688Z,94.50
2018-08-31T03:00:09.770Z,94.50
2018-08-31T03:02:11.872Z,94.30
2018-08-31T03:04:14.057Z,94.30
2018-08-31T03:06:16.097Z,94.10
2018-08-31T03:08:18.179Z,93.90
2018-08-31T03:10:20.227Z,93.90
2018-08-31T03:12:22.265Z,93.80
2018-08-31T03:14:24.298Z,94.00
2018-08-31T03:16:26.369Z,94.00
2018-08-31T03:18:28.401Z,94.10
2018-08-31T03:20:30.468Z,93.90
2018-08-31T03:22:32.563Z,94.10
2018-08-31T03:24:34.601Z,93.70
2018-08-31T03:26:36.888Z,93.60
2018-08-31T03:28:38.966Z,93.50
2018-08-31T03:30:41.002Z,93.50
2018-08-31T03:32:43.200Z,93.50
2018-08-31T03:34:45.269Z,93.60
2018-08-31T03:36:47.375Z,93.60
2018-08-31T03:38:49.454Z,93.90
2018-08-31T03:40:51.526Z,93.90
2018-08-31T03:42:53.586Z,94.10
2018-08-31T03:44:56.701Z,94.20
2018-08-31T03:46:58.780Z,94.30
2018-08-31T03:49:01.206Z,94.00
2018-08-31T03:51:03.280Z,93.90
2018-08-31T03:53:05.371Z,94.00
2018-08-31T03:55:07.957Z,94.10
2018-08-31T03:57:10.274Z,93.90
2018-08-31T03:59:12.349Z,94.10
2018-08-31T04:01:14.476Z,94.50
2018-08-31T04:03:16.567Z,94.60
2018-08-31T04:05:18.688Z,94.80
2018-08-31T04:07:20.724Z,94.60
2018-08-31T04:09:22.789Z,94.60
2018-08-31T04:11:24.833Z,94.50
2018-08-31T04:13:26.884Z,94.70
2018-08-31T04:15:29.215Z,94.50
2018-08-31T04:17:31.361Z,94.60
2018-08-31T04:19:33.421Z,94.60
2018-08-31T04:21:35.829Z,94.80
2018-08-31T04:23:37.900Z,94.50
2018-08-31T04:25:39.953Z,94.60
2018-08-31T04:27:42.005Z,94.50
2018-08-31T04:29:44.085Z,94.50
2018-08-31T04:31:46.142Z,94.50
2018-08-31T04:33:48.200Z,94.70
2018-08-31T04:35:50.260Z,94.50
2018-08-31T04:37:52.344Z,94.50
2018-08-31T04:39:54.429Z,94.60
2018-08-31T04:41:56.497Z,94.80
2018-08-31T04:43:58.524Z,94.60
2018-08-31T04:46:00.596Z,94.70
2018-08-31T04:48:02.621Z,94.50
2018-08-31T04:50:04.732Z,95.10
2018-08-31T04:52:07.138Z,94.80
2018-08-31T04:54:09.197Z,94.70
2018-08-31T04:56:11.253Z,94.60
2018-08-31T04:58:13.329Z,94.80
2018-08-31T05:00:15.362Z,95.00
2018-08-31T05:02:17.356Z,95.10
2018-08-31T05:04:19.432Z,95.00
2018-08-31T05:06:21.438Z,95.30
2018-08-31T05:08:23.452Z,95.20
2018-08-31T05:10:25.505Z,95.10
2018-08-31T05:12:27.550Z,95.30
2018-08-31T05:14:29.568Z,95.10
2018-08-31T05:16:31.664Z,94.90
2018-08-31T05:18:33.690Z,95.20
2018-08-31T05:20:35.749Z,95.00
2018-08-31T05:22:37.838Z,95.10
2018-08-31T05:24:39.873Z,95.20
2018-08-31T05:26:41.913Z,95.30
2018-08-31T05:28:43.949Z,95.50
2018-08-31T05:30:46.001Z,95.60
2018-08-31T05:32:48.074Z,95.50
2018-08-31T05:34:50.305Z,95.40
2018-08-31T05:36:52.189Z,95.60
2018-08-31T05:38:54.230Z,95.50
2018-08-31T05:41:00.212Z,95.50
2018-08-31T05:43:02.289Z,95.60
2018-08-31T05:45:05.160Z,95.30
2018-08-31T05:47:07.589Z,95.30
2018-08-31T05:49:09.608Z,95.30
2018-08-31T05:51:11.649Z,94.90
2018-08-31T05:53:13.700Z,94.90
2018-08-31T05:55:15.853Z,95.00
2018-08-31T05:57:17.958Z,94.80
2018-08-31T05:59:20.021Z,94.90
2018-08-31T06:01:22.097Z,94.90
2018-08-31T06:03:24.184Z,94.50
2018-08-31T06:05:26.293Z,94.90
2018-08-31T06:07:28.356Z,94.70
2018-08-31T06:09:30.382Z,94.70
2018-08-31T06:11:32.505Z,94.40
2018-08-31T06:13:34.972Z,94.80
2018-08-31T06:15:37.006Z,94.50
2018-08-31T06:17:39.142Z,94.50
2018-08-31T06:19:41.175Z,94.40
2018-08-31T06:21:43.305Z,94.20
2018-08-31T06:23:45.365Z,94.20
2018-08-31T06:25:47.468Z,94.20
2018-08-31T06:27:49.574Z,94.30
2018-08-31T06:29:51.917Z,93.70
2018-08-31T06:31:54.017Z,93.50
2018-08-31T06:33:56.164Z,93.20
2018-08-31T06:35:58.172Z,92.90
2018-08-31T06:38:00.262Z,92.60
2018-08-31T06:40:02.333Z,93.20
2018-08-31T06:42:04.399Z,93.20
2018-08-31T06:44:06.425Z,92.80
2018-08-31T06:46:08.437Z,93.20
2018-08-31T06:48:10.513Z,92.80
2018-08-31T06:50:12.573Z,92.50
2018-08-31T06:52:14.626Z,91.80
2018-08-31T06:54:16.657Z,92.40
2018-08-31T06:56:18.721Z,91.70
2018-08-31T06:58:20.821Z,92.10
2018-08-31T07:00:22.944Z,91.30
2018-08-31T07:02:24.972Z,91.90
2018-08-31T07:04:27.010Z,91.70
2018-08-31T07:06:29.063Z,91.40
2018-08-31T07:08:31.120Z,91.40
2018-08-31T07:10:33.327Z,91.60
2018-08-31T07:12:35.474Z,91.80
2018-08-31T07:14:37.493Z,90.80
2018-08-31T07:16:39.537Z,90.40
2018-08-31T07:18:41.586Z,88.30
2018-08-31T07:20:43.618Z,90.60
2018-08-31T07:22:45.655Z,89.70
2018-08-31T07:24:47.702Z,90.10
2018-08-31T07:26:49.804Z,89.70
2018-08-31T07:28:51.890Z,86.40
2018-08-31T07:30:54.006Z,87.00
2018-08-31T07:32:56.113Z,87.40
2018-08-31T07:34:58.141Z,87.30
2018-08-31T07:37:00.185Z,86.80
2018-08-31T07:39:02.284Z,86.30
2018-08-31T07:41:04.485Z,87.90
2018-08-31T07:43:06.558Z,84.20
2018-08-31T07:45:08.621Z,77.40
2018-08-31T07:47:10.680Z,80.00
2018-08-31T07:49:12.761Z,74.60
2018-08-31T07:51:14.844Z,80.40
2018-08-31T07:53:16.889Z,73.50
2018-08-31T07:55:18.960Z,68.20
2018-08-31T07:57:21.053Z,65.10
2018-08-31T07:59:23.089Z,59.60
2018-08-31T08:01:25.127Z,58.70
2018-08-31T08:03:27.161Z,57.20
2018-08-31T08:05:29.220Z,57.50
2018-08-31T08:07:31.373Z,53.10
2018-08-31T08:09:33.328Z,53.30
2018-08-31T08:11:35.374Z,51.70
2018-08-31T08:13:37.394Z,55.60
2018-08-31T08:15:39.433Z,54.10
2018-08-31T08:17:41.465Z,53.20
2018-08-31T08:19:43.593Z,52.20
2018-08-31T08:21:45.572Z,54.70
2018-08-31T08:23:47.645Z,57.00
2018-08-31T08:25:49.725Z,57.50
2018-08-31T08:27:51.797Z,60.50
2018-08-31T08:29:53.889Z,55.90
2018-08-31T08:31:55.925Z,56.20
2018-08-31T08:33:58.043Z,55.10
2018-08-31T08:36:00.129Z,56.00
2018-08-31T08:38:02.310Z,60.00
2018-08-31T08:40:04.373Z,59.50
2018-08-31T08:42:06.568Z,56.20
2018-08-31T08:44:09.443Z,59.90
2018-08-31T08:46:11.527Z,56.10
2018-08-31T08:48:13.661Z,59.00
2018-08-31T08:50:15.686Z,58.50
2018-08-31T08:52:17.769Z,57.00
2018-08-31T08:54:19.832Z,57.90
2018-08-31T08:56:21.904Z,53.80
2018-08-31T08:58:24.098Z,47.30
2018-08-31T09:00:26.040Z,51.70
2018-08-31T09:02:28.093Z,52.80
2018-08-31T09:04:30.154Z,54.50
2018-08-31T09:06:32.401Z,49.70
2018-08-31T09:08:34.453Z,49.80
2018-08-31T09:10:36.498Z,50.00
2018-08-31T09:12:38.565Z,50.00
2018-08-31T09:14:40.613Z,49.80
2018-08-31T09:16:42.677Z,46.00
2018-08-31T09:18:44.753Z,43.00
2018-08-31T09:20:46.777Z,46.10
2018-08-31T09:22:48.829Z,48.30
2018-08-31T09:24:50.878Z,42.30
2018-08-31T09:26:52.917Z,45.50
2018-08-31T09:28:54.962Z,47.00
2018-08-31T09:30:57.034Z,47.10
2018-08-31T09:32:59.075Z,46.20
2018-08-31T09:35:01.362Z,48.70
2018-08-31T09:37:03.401Z,46.00
2018-08-31T09:39:07.177Z,50.00
2018-08-31T09:41:09.239Z,48.70
2018-08-31T09:43:11.327Z,49.10
2018-08-31T09:45:13.379Z,50.10
2018-08-31T09:47:15.446Z,47.40
2018-08-31T09:49:17.537Z,47.20
2018-08-31T09:51:19.629Z,45.20
2018-08-31T09:53:21.730Z,37.20
2018-08-31T09:55:23.873Z,38.40
2018-08-31T09:57:25.985Z,33.90
2018-08-31T09:59:27.973Z,35.20
2018-08-31T10:01:32.891Z,35.50
2018-08-31T10:03:34.949Z,33.80
2018-08-31T10:05:36.968Z,37.40
2018-08-31T10:07:39.012Z,40.30
2018-08-31T10:09:41.082Z,42.10
2018-08-31T10:11:43.131Z,38.70
2018-08-31T10:13:45.212Z,43.80
2018-08-31T10:15:47.261Z,47.90
2018-08-31T10:17:49.669Z,47.70
2018-08-31T10:19:51.713Z,46.20
2018-08-31T10:21:53.753Z,49.70
2018-08-31T10:23:55.830Z,49.10
2018-08-31T10:25:57.930Z,50.30
2018-08-31T10:28:01.385Z,48.00
2018-08-31T10:30:04.803Z,48.70
2018-08-31T10:32:06.808Z,49.10
2018-08-31T10:34:08.873Z,48.90
2018-08-31T10:36:10.921Z,48.30
2018-08-31T10:38:12.957Z,48.50
2018-08-31T10:40:15.051Z,49.10
2018-08-31T10:42:17.193Z,41.20
2018-08-31T10:44:19.243Z,46.60
2018-08-31T10:46:21.429Z,40.50
2018-08-31T10:48:24.593Z,38.00
2018-08-31T10:50:26.703Z,26.60
2018-08-31T10:52:28.748Z,24.50
2018-08-31T10:54:30.926Z,25.80
2018-08-31T10:56:32.978Z,24.00
2018-08-31T10:58:35.033Z,28.40
2018-08-31T11:00:37.091Z,24.90
2018-08-31T11:02:39.670Z,27.30
2018-08-31T11:04:41.725Z,23.20
2018-08-31T11:06:43.777Z,22.40
2018-08-31T11:08:45.829Z,23.40
2018-08-31T11:10:47.899Z,24.30
2018-08-31T11:12:50.034Z,25.80
2018-08-31T11:14:52.059Z,25.30
2018-08-31T11:16:54.107Z,28.30
2018-08-31T11:18:56.272Z,27.70
2018-08-31T11:20:58.237Z,26.50
2018-08-31T11:23:00.343Z,27.70
2018-08-31T11:25:02.386Z,26.60
2018-08-31T11:27:04.467Z,25.70
2018-08-31T11:29:06.500Z,27.10
2018-08-31T11:31:08.597Z,25.30
2018-08-31T11:33:10.689Z,24.60
2018-08-31T11:35:12.745Z,25.90
2018-08-31T11:37:14.762Z,27.80
2018-08-31T11:39:16.885Z,25.10
2018-08-31T11:41:18.957Z,23.50
2018-08-31T11:43:21.081Z,22.60
2018-08-31T11:45:23.085Z,28.00
2018-08-31T11:47:25.161Z,23.00
2018-08-31T11:49:27.217Z,19.70
2018-08-31T11:51:29.281Z,23.40
2018-08-31T11:53:31.357Z,19.30
2018-08-31T11:55:33.425Z,24.50
2018-08-31T11:57:35.506Z,21.40
2018-08-31T11:59:37.565Z,23.00
2018-08-31T12:01:39.629Z,22.80
2018-08-31T12:03:41.693Z,20.60
2018-08-31T12:05:43.785Z,21.00
2018-08-31T12:07:45.849Z,18.40
2018-08-31T12:09:47.865Z,16.20
2018-08-31T12:11:49.925Z,20.00
2018-08-31T12:13:52.110Z,20.10
2018-08-31T12:15:54.187Z,16.00
2018-08-31T12:17:56.289Z,11.30
2018-08-31T12:19:58.349Z,15.50
2018-08-31T12:22:00.395Z,14.90
2018-08-31T12:24:02.454Z,16.80
2018-08-31T12:26:04.644Z,12.30
2018-08-31T12:28:06.732Z,18.40
2018-08-31T12:30:08.989Z,13.70
2018-08-31T12:32:11.059Z,15.60
2018-08-31T12:34:13.159Z,11.90
2018-08-31T12:36:15.255Z,17.50
2018-08-31T12:38:17.350Z,10.60
2018-08-31T12:40:19.413Z,12.90
2018-08-31T12:42:21.460Z,11.60
2018-08-31T12:44:23.730Z,11.10
2018-08-31T12:46:25.878Z,10.00
2018-08-31T12:48:27.957Z,8.60
2018-08-31T12:50:30.022Z,10.00
2018-08-31T12:52:32.081Z,9.60
2018-08-31T12:54:34.211Z,8.40
2018-08-31T12:56:36.312Z,9.80
2018-08-31T12:58:38.401Z,8.90
2018-08-31T13:00:40.609Z,9.80
2018-08-31T13:02:42.686Z,8.20
2018-08-31T13:04:44.765Z,9.80
2018-08-31T13:06:47.067Z,7.00
2018-08-31T13:08:49.102Z,7.60
2018-08-31T13:10:51.166Z,9.20
2018-08-31T13:12:53.266Z,5.00
2018-08-31T13:14:55.477Z,5.70
2018-08-31T13:16:57.586Z,7.20
2018-08-31T13:18:59.646Z,8.70
2018-08-31T13:23:36.605Z,5.60
2018-08-31T13:25:38.671Z,7.40
2018-08-31T13:27:40.773Z,4.60
2018-08-31T13:29:42.786Z,5.70
2018-08-31T13:31:44.945Z,4.10
2018-08-31T13:33:47.047Z,5.50
2018-08-31T13:35:51.318Z,4.00
2018-08-31T13:37:54.446Z,6.40
2018-08-31T13:39:56.554Z,5.30
2018-08-31T13:42:00.116Z,5.80
2018-08-31T13:44:02.368Z,4.80
2018-08-31T13:46:04.944Z,6.50
2018-08-31T13:48:08.464Z,5.60
2018-08-31T13:50:10.538Z,5.00
2018-08-31T13:52:12.609Z,6.10
2018-08-31T13:54:16.318Z,6.40
2018-08-31T13:56:23.914Z,10.60
2018-08-31T13:58:26.034Z,7.10
2018-08-31T14:00:31.118Z,4.50
2018-08-31T14:02:34.966Z,7.10
2018-08-31T14:04:38.997Z,9.20
2018-08-31T14:06:41.116Z,9.40
2018-08-31T14:08:43.255Z,6.00
2018-08-31T14:10:45.403Z,9.90
2018-08-31T14:12:50.927Z,9.80
2018-08-31T14:14:57.325Z,11.90
2018-08-31T14:16:59.381Z,9.40
2018-08-31T14:19:02.581Z,10.80
2018-08-31T14:21:05.894Z,12.00
2018-08-31T14:23:08.085Z,12.10
2018-08-31T14:25:10.705Z,11.40
2018-08-31T14:27:12.864Z,11.40
2018-08-31T14:29:14.965Z,11.50
2018-08-31T14:31:17.109Z,10.40
2018-08-31T14:33:35.567Z,8.90
2018-08-31T14:35:39.250Z,6.80
2018-08-31T14:37:42.634Z,7.50
2018-08-31T14:39:44.664Z,7.10
2018-08-31T14:41:49.116Z,4.90
2018-08-31T14:43:51.218Z,3.70
2018-08-31T14:45:55.950Z,4.10
2018-08-31T14:47:58.059Z,4.50
2018-08-31T14:50:00.250Z,4.40
2018-08-31T14:52:02.312Z,5.20
2018-08-31T14:54:04.575Z,6.40
2018-08-31T14:56:06.859Z,2.40
2018-08-31T14:58:08.956Z,3.10
2018-08-31T15:00:11.045Z,5.10
2018-08-31T15:02:13.193Z,5.10
2018-08-31T15:04:15.296Z,6.70
2018-08-31T15:06:17.362Z,5.00
2018-08-31T15:08:19.439Z,4.00
2018-08-31T15:10:21.497Z,5.90
2018-08-31T15:12:23.581Z,5.80
2018-08-31T15:14:25.641Z,6.20
2018-08-31T15:16:28.685Z,4.30
2018-08-31T15:18:30.770Z,7.70
2018-08-31T15:20:32.849Z,5.60
2018-08-31T15:22:35.782Z,6.30
2018-08-31T15:24:37.992Z,6.70
2018-08-31T15:26:40.156Z,5.00
2018-08-31T15:28:42.365Z,7.20
2018-08-31T15:30:44.581Z,3.20
2018-08-31T15:32:46.708Z,6.30
2018-08-31T15:34:48.848Z,6.40
2018-08-31T15:36:51.039Z,5.70
2018-08-31T15:38:53.120Z,3.10
2018-08-31T15:40:55.206Z,5.80
2018-08-31T15:42:57.269Z,5.80
2018-08-31T15:44:59.333Z,3.00
2018-08-31T15:47:01.441Z,4.40
2018-08-31T15:49:03.516Z,4.50
2018-08-31T15:51:05.628Z,6.00
2018-08-31T15:53:07.757Z,7.70
2018-08-31T15:55:09.836Z,8.00
2018-08-31T15:57:11.904Z,5.90
2018-08-31T15:59:13.960Z,8.00
2018-08-31T16:01:16.009Z,6.90
2018-08-31T16:03:18.071Z,6.70
2018-08-31T16:05:20.119Z,7.50
2018-08-31T16:07:22.167Z,9.90
2018-08-31T16:09:24.248Z,8.80
2018-08-31T16:11:26.245Z,9.40
2018-08-31T16:13:28.281Z,7.20
2018-08-31T16:15:30.328Z,7.70
2018-08-31T16:17:32.411Z,6.90
2018-08-31T16:19:34.596Z,6.00
2018-08-31T16:21:36.863Z,6.60
2018-08-31T16:23:39.146Z,8.60
2018-08-31T16:25:41.480Z,8.30
2018-08-31T16:27:43.701Z,9.90
2018-08-31T16:29:45.910Z,6.50
2018-08-31T16:31:48.059Z,8.40
2018-08-31T16:33:50.201Z,10.60
2018-08-31T16:35:52.468Z,8.90
2018-08-31T16:37:54.938Z,9.90
2018-08-31T16:39:57.239Z,9.30
2018-08-31T16:42:09.271Z,9.80
2018-08-31T16:44:12.227Z,8.90
2018-08-31T16:46:14.698Z,10.70
2018-08-31T16:48:18.058Z,10.50
2018-08-31T16:50:20.381Z,9.30
2018-08-31T16:52:22.731Z,11.00
2018-08-31T16:54:24.964Z,10.50
2018-08-31T16:56:27.191Z,11.50
2018-08-31T16:58:31.871Z,14.20
2018-08-31T17:00:35.169Z,14.40
2018-08-31T17:02:37.820Z,15.30
2018-08-31T17:04:40.377Z,13.00
2018-08-31T17:06:42.883Z,13.70
2018-08-31T17:08:45.395Z,14.60
2018-08-31T17:10:47.963Z,16.30
2018-08-31T17:12:50.408Z,14.70
2018-08-31T17:14:52.909Z,16.10
2018-08-31T17:16:55.547Z,18.00
2018-08-31T17:18:57.814Z,17.40
2018-08-31T17:21:00.178Z,19.70
2018-08-31T17:23:02.767Z,18.50
2018-08-31T17:25:07.085Z,21.10
2018-08-31T17:27:15.760Z,21.10
2018-08-31T17:29:25.026Z,24.40
2018-08-31T17:31:33.318Z,21.80
2018-08-31T17:33:41.728Z,20.30
2018-08-31T17:35:50.124Z,23.60
2018-08-31T17:37:52.663Z,24.30
2018-08-31T17:39:57.034Z,28.00
2018-08-31T17:42:00.959Z,27.90
2018-08-31T17:44:04.551Z,27.70
2018-08-31T17:46:07.366Z,31.10
2018-08-31T17:48:14.027Z,31.60
2018-08-31T17:50:21.328Z,33.10
2018-08-31T17:52:27.651Z,35.60
2018-08-31T17:54:33.395Z,36.20
2018-08-31T17:56:39.675Z,35.00
2018-08-31T17:58:42.701Z,34.60
2018-08-31T18:00:45.637Z,33.70
2018-08-31T18:02:48.231Z,34.20
2018-08-31T18:04:51.386Z,35.40
2018-08-31T18:06:55.576Z,34.40
2018-08-31T18:08:59.620Z,34.30
2018-08-31T18:11:03.800Z,34.80
2018-08-31T18:13:06.741Z,38.60
2018-08-31T18:15:13.460Z,38.40
2018-08-31T18:17:18.227Z,39.60
2018-08-31T18:19:27.167Z,39.60
2018-08-31T18:21:37.616Z,40.40
2018-08-31T18:23:40.358Z,40.90
2018-08-31T18:25:44.911Z,44.40
2018-08-31T18:27:48.669Z,46.60
2018-08-31T18:29:52.822Z,49.20
2018-08-31T18:32:05.084Z,49.10
2018-08-31T18:34:07.684Z,53.30
2018-08-31T18:36:10.536Z,50.20
2018-08-31T18:38:14.586Z,50.80
2018-08-31T18:40:17.467Z,53.80
2018-08-31T18:42:20.271Z,54.70
2018-08-31T18:44:32.606Z,57.30
2018-08-31T18:49:45.425Z,55.60
2018-08-31T18:52:19.657Z,58.30
2018-08-31T18:55:41.881Z,58.70
2018-08-31T18:58:17.988Z,57.20
2018-08-31T20:01:15.115Z,58.10
2018-08-31T20:03:17.176Z,54.20
2018-08-31T20:05:19.353Z,54.40
2018-08-31T20:07:21.444Z,51.80
2018-08-31T20:09:23.494Z,52.70
2018-08-31T20:11:25.542Z,52.70
2018-08-31T20:13:27.679Z,53.20
2018-08-31T20:15:29.654Z,50.40
2018-08-31T20:17:31.760Z,49.20
2018-08-31T20:19:34.074Z,48.20
2018-08-31T20:21:36.147Z,48.00
2018-08-31T20:23:38.238Z,50.30
2018-08-31T20:25:40.301Z,49.20
2018-08-31T20:27:42.354Z,48.60
2018-08-31T20:29:44.518Z,47.00
2018-08-31T20:31:46.613Z,46.20
2018-08-31T20:33:48.665Z,49.10
2018-08-31T20:35:50.716Z,47.70
2018-08-31T20:37:52.760Z,45.60
2018-08-31T20:39:54.809Z,46.10
2018-08-31T20:41:56.877Z,46.20
2018-08-31T20:43:58.913Z,45.60
2018-08-31T20:46:01.029Z,48.10
2018-08-31T20:48:03.093Z,46.90
2018-08-31T20:50:05.169Z,45.70
2018-08-31T20:52:07.291Z,48.10
2018-08-31T20:54:09.551Z,51.40
2018-08-31T20:56:11.708Z,51.00
2018-08-31T20:58:13.913Z,50.70
2018-08-31T21:00:15.992Z,52.00
2018-08-31T21:02:18.127Z,52.40
2018-08-31T21:04:20.270Z,52.20
2018-08-31T21:06:22.422Z,53.80
2018-08-31T21:08:24.504Z,56.10
2018-08-31T21:10:26.598Z,52.40
2018-08-31T21:12:28.666Z,51.50
2018-08-31T21:14:30.689Z,52.30
2018-08-31T21:16:32.765Z,53.40
2018-08-31T21:18:34.808Z,52.40
2018-08-31T21:20:36.840Z,52.10
2018-08-31T21:22:38.894Z,51.30
2018-08-31T21:24:40.940Z,52.30
2018-08-31T21:26:43.005Z,52.00
2018-08-31T21:28:45.233Z,50.60
2018-08-31T21:30:47.323Z,53.90
2018-08-31T21:32:49.373Z,54.40
2018-08-31T21:34:51.574Z,53.90
2018-08-31T21:36:53.670Z,55.50
